KHTS/HTS METAR and TAF weather

Enter ICAO airport designator
Station Type Date Time Source
KHTS METAR 2019/08/17 09:51 UTC NOAA

KHTS 170951Z 00000KT 6SM BR CLR 19/18 A2998 RMK AO2 SLP144 T01890178


Station Type Date Time Source
KHTS Decoded METAR 2019/08/17 09:51 UTC NOAA

Station name not available
Aug 17, 2019 - 05:51 AM EDT / 2019.08.17 0951 UTC
Wind: Calm:0
Visibility: 6 mile(s):0
Sky conditions: clear
Weather: mist
Temperature: 66.0 F (18.9 C)
Dew Point: 64.0 F (17.8 C)
Relative Humidity: 93%
Pressure (altimeter): 29.98 in. Hg (1015 hPa)
ob: KHTS 170951Z 00000KT 6SM BR CLR 19/18 A2998 RMK AO2 SLP144 T01890178
cycle: 10

Station Type Date Time Source
KHTS TAF 2019/08/17 09:58 UTC NOAA

TAF
AMD KHTS 170858Z 1709/1806 10003KT 6SM BR FEW250
FM171000 10003KT 5SM BR FEW250
TEMPO 1710/1712 1SM BR SCT002
FM171200 22004KT P6SM FEW120
FM171800 25005KT P6SM SCT040
FM180000 00000KT P6SM FEW150

Example: see airport list